sensor_id;sensor_type;location;lat;lon;timestamp;P1;durP1;ratioP1;P2;durP2;ratioP2
42754;SDS011;28407;51.830;5.684;2022-08-19T00:01:15;3.20;;;2.10;;
42754;SDS011;28407;51.830;5.684;2022-08-19T00:03:16;2.20;;;1.73;;
42754;SDS011;28407;51.830;5.684;2022-08-19T00:05:17;2.60;;;1.55;;
42754;SDS011;28407;51.830;5.684;2022-08-19T00:07:19;4.57;;;1.92;;
42754;SDS011;28407;51.830;5.684;2022-08-19T00:09:20;2.40;;;1.70;;
42754;SDS011;28407;51.830;5.684;2022-08-19T00:11:22;2.75;;;2.00;;
42754;SDS011;28407;51.830;5.684;2022-08-19T00:13:23;3.90;;;2.33;;
42754;SDS011;28407;51.830;5.684;2022-08-19T00:15:23;2.72;;;1.70;;
42754;SDS011;28407;51.830;5.684;2022-08-19T00:17:24;3.92;;;2.33;;
42754;SDS011;28407;51.830;5.684;2022-08-19T00:19:24;2.65;;;2.05;;
42754;SDS011;28407;51.830;5.684;2022-08-19T00:21:25;6.03;;;2.13;;
42754;SDS011;28407;51.830;5.684;2022-08-19T00:23:26;3.03;;;1.88;;
42754;SDS011;28407;51.830;5.684;2022-08-19T00:25:27;2.60;;;1.85;;
42754;SDS011;28407;51.830;5.684;2022-08-19T00:27:28;3.00;;;2.13;;
42754;SDS011;28407;51.830;5.684;2022-08-19T00:29:28;3.80;;;2.35;;
42754;SDS011;28407;51.830;5.684;2022-08-19T00:31:29;2.22;;;1.70;;
42754;SDS011;28407;51.830;5.684;2022-08-19T00:33:31;2.40;;;2.13;;
42754;SDS011;28407;51.830;5.684;2022-08-19T00:35:32;3.22;;;2.40;;
42754;SDS011;28407;51.830;5.684;2022-08-19T00:37:34;3.60;;;2.20;;
42754;SDS011;28407;51.830;5.684;2022-08-19T00:39:35;2.67;;;1.90;;
42754;SDS011;28407;51.830;5.684;2022-08-19T00:41:36;3.17;;;2.15;;
42754;SDS011;28407;51.830;5.684;2022-08-19T00:45:40;3.47;;;1.95;;
42754;SDS011;28407;51.830;5.684;2022-08-19T00:47:44;2.47;;;1.52;;
42754;SDS011;28407;51.830;5.684;2022-08-19T00:49:49;1.83;;;1.50;;
42754;SDS011;28407;51.830;5.684;2022-08-19T00:51:56;2.13;;;1.50;;
42754;SDS011;28407;51.830;5.684;2022-08-19T00:54:04;2.38;;;1.70;;
42754;SDS011;28407;51.830;5.684;2022-08-19T00:56:05;2.40;;;1.70;;
42754;SDS011;28407;51.830;5.684;2022-08-19T00:58:08;2.20;;;1.58;;
42754;SDS011;28407;51.830;5.684;2022-08-19T01:00:15;2.28;;;1.80;;
42754;SDS011;28407;51.830;5.684;2022-08-19T01:02:18;2.20;;;1.73;;
42754;SDS011;28407;51.830;5.684;2022-08-19T01:04:19;3.28;;;1.63;;
42754;SDS011;28407;51.830;5.684;2022-08-19T01:06:20;2.00;;;1.67;;
42754;SDS011;28407;51.830;5.684;2022-08-19T01:08:21;2.77;;;1.90;;
42754;SDS011;28407;51.830;5.684;2022-08-19T01:10:25;2.88;;;2.10;;
42754;SDS011;28407;51.830;5.684;2022-08-19T01:12:28;2.42;;;1.80;;
42754;SDS011;28407;51.830;5.684;2022-08-19T01:14:30;3.33;;;2.47;;
42754;SDS011;28407;51.830;5.684;2022-08-19T01:16:31;3.80;;;2.03;;
42754;SDS011;28407;51.830;5.684;2022-08-19T01:18:39;2.50;;;1.77;;
42754;SDS011;28407;51.830;5.684;2022-08-19T01:20:42;3.08;;;2.13;;
42754;SDS011;28407;51.830;5.684;2022-08-19T01:22:45;3.55;;;2.78;;
42754;SDS011;28407;51.830;5.684;2022-08-19T01:24:48;4.40;;;3.10;;
42754;SDS011;28407;51.830;5.684;2022-08-19T01:26:49;4.10;;;3.20;;
42754;SDS011;28407;51.830;5.684;2022-08-19T01:28:50;3.83;;;3.42;;
42754;SDS011;28407;51.830;5.684;2022-08-19T01:30:54;4.63;;;3.75;;
42754;SDS011;28407;51.830;5.684;2022-08-19T01:32:54;3.83;;;3.17;;
42754;SDS011;28407;51.830;5.684;2022-08-19T01:34:56;5.05;;;3.80;;
42754;SDS011;28407;51.830;5.684;2022-08-19T01:36:56;4.30;;;3.63;;
42754;SDS011;28407;51.830;5.684;2022-08-19T01:38:58;4.28;;;3.47;;
42754;SDS011;28407;51.830;5.684;2022-08-19T01:41:00;3.72;;;3.03;;
42754;SDS011;28407;51.830;5.684;2022-08-19T01:43:00;4.30;;;3.75;;
42754;SDS011;28407;51.830;5.684;2022-08-19T01:45:03;3.38;;;2.72;;
42754;SDS011;28407;51.830;5.684;2022-08-19T01:47:06;3.35;;;2.83;;
42754;SDS011;28407;51.830;5.684;2022-08-19T01:49:09;4.05;;;2.88;;
42754;SDS011;28407;51.830;5.684;2022-08-19T01:51:10;3.50;;;2.75;;
42754;SDS011;28407;51.830;5.684;2022-08-19T01:53:11;4.63;;;2.70;;
42754;SDS011;28407;51.830;5.684;2022-08-19T01:55:13;4.15;;;3.13;;
42754;SDS011;28407;51.830;5.684;2022-08-19T01:57:16;3.97;;;3.33;;
42754;SDS011;28407;51.830;5.684;2022-08-19T01:59:17;4.63;;;3.38;;
42754;SDS011;28407;51.830;5.684;2022-08-19T02:01:20;4.00;;;3.30;;
42754;SDS011;28407;51.830;5.684;2022-08-19T02:03:21;4.45;;;3.60;;
42754;SDS011;28407;51.830;5.684;2022-08-19T02:05:22;3.00;;;2.35;;
42754;SDS011;28407;51.830;5.684;2022-08-19T02:07:23;3.08;;;2.63;;
42754;SDS011;28407;51.830;5.684;2022-08-19T02:09:24;4.90;;;3.45;;
42754;SDS011;28407;51.830;5.684;2022-08-19T02:11:28;4.07;;;3.30;;
42754;SDS011;28407;51.830;5.684;2022-08-19T02:13:31;4.55;;;3.40;;
42754;SDS011;28407;51.830;5.684;2022-08-19T02:15:32;4.22;;;3.25;;
42754;SDS011;28407;51.830;5.684;2022-08-19T02:17:33;3.42;;;2.80;;
42754;SDS011;28407;51.830;5.684;2022-08-19T02:19:34;4.18;;;2.42;;
42754;SDS011;28407;51.830;5.684;2022-08-19T02:21:34;3.33;;;2.60;;
42754;SDS011;28407;51.830;5.684;2022-08-19T02:23:37;2.97;;;2.28;;
42754;SDS011;28407;51.830;5.684;2022-08-19T02:25:38;5.38;;;2.67;;
42754;SDS011;28407;51.830;5.684;2022-08-19T02:27:40;3.00;;;2.17;;
42754;SDS011;28407;51.830;5.684;2022-08-19T02:29:41;2.90;;;2.15;;
42754;SDS011;28407;51.830;5.684;2022-08-19T02:31:42;2.60;;;1.97;;
42754;SDS011;28407;51.830;5.684;2022-08-19T02:33:44;2.95;;;2.08;;
42754;SDS011;28407;51.830;5.684;2022-08-19T02:35:45;2.25;;;1.70;;
42754;SDS011;28407;51.830;5.684;2022-08-19T02:37:46;2.45;;;2.05;;
42754;SDS011;28407;51.830;5.684;2022-08-19T02:40:06;2.58;;;1.92;;
42754;SDS011;28407;51.830;5.684;2022-08-19T02:42:07;2.90;;;2.13;;
42754;SDS011;28407;51.830;5.684;2022-08-19T02:44:08;3.10;;;2.25;;
42754;SDS011;28407;51.830;5.684;2022-08-19T02:46:18;3.08;;;2.35;;
42754;SDS011;28407;51.830;5.684;2022-08-19T02:48:25;2.80;;;2.20;;
42754;SDS011;28407;51.830;5.684;2022-08-19T02:50:26;2.85;;;2.15;;
42754;SDS011;28407;51.830;5.684;2022-08-19T02:52:26;3.65;;;2.83;;
42754;SDS011;28407;51.830;5.684;2022-08-19T02:54:28;2.80;;;2.30;;
42754;SDS011;28407;51.830;5.684;2022-08-19T02:56:31;3.13;;;1.90;;
42754;SDS011;28407;51.830;5.684;2022-08-19T02:58:35;2.85;;;2.25;;
42754;SDS011;28407;51.830;5.684;2022-08-19T03:00:35;3.03;;;2.38;;
42754;SDS011;28407;51.830;5.684;2022-08-19T03:02:36;3.58;;;2.17;;
42754;SDS011;28407;51.830;5.684;2022-08-19T03:04:36;2.63;;;2.10;;
42754;SDS011;28407;51.830;5.684;2022-08-19T03:06:38;2.85;;;2.20;;
42754;SDS011;28407;51.830;5.684;2022-08-19T03:08:41;2.85;;;2.42;;
42754;SDS011;28407;51.830;5.684;2022-08-19T03:10:44;2.90;;;2.40;;
42754;SDS011;28407;51.830;5.684;2022-08-19T03:12:46;3.63;;;2.40;;
42754;SDS011;28407;51.830;5.684;2022-08-19T03:14:46;2.65;;;2.20;;
42754;SDS011;28407;51.830;5.684;2022-08-19T03:16:49;4.55;;;2.20;;
42754;SDS011;28407;51.830;5.684;2022-08-19T03:18:51;3.30;;;2.00;;
42754;SDS011;28407;51.830;5.684;2022-08-19T03:20:52;2.60;;;1.88;;
42754;SDS011;28407;51.830;5.684;2022-08-19T03:22:54;3.50;;;2.17;;
42754;SDS011;28407;51.830;5.684;2022-08-19T03:24:54;3.08;;;2.15;;
42754;SDS011;28407;51.830;5.684;2022-08-19T03:26:55;3.13;;;2.40;;
42754;SDS011;28407;51.830;5.684;2022-08-19T03:29:03;2.85;;;2.10;;
42754;SDS011;28407;51.830;5.684;2022-08-19T03:31:11;3.35;;;2.38;;
42754;SDS011;28407;51.830;5.684;2022-08-19T03:33:13;2.40;;;1.90;;
42754;SDS011;28407;51.830;5.684;2022-08-19T03:35:14;2.78;;;2.30;;
42754;SDS011;28407;51.830;5.684;2022-08-19T03:37:15;2.70;;;2.00;;
42754;SDS011;28407;51.830;5.684;2022-08-19T03:39:15;2.97;;;1.83;;
42754;SDS011;28407;51.830;5.684;2022-08-19T03:41:18;3.88;;;2.08;;
42754;SDS011;28407;51.830;5.684;2022-08-19T03:43:21;2.58;;;2.00;;
42754;SDS011;28407;51.830;5.684;2022-08-19T03:45:22;3.00;;;2.40;;
42754;SDS011;28407;51.830;5.684;2022-08-19T03:47:23;2.63;;;2.13;;
42754;SDS011;28407;51.830;5.684;2022-08-19T03:49:24;3.42;;;2.30;;
42754;SDS011;28407;51.830;5.684;2022-08-19T03:51:30;3.30;;;2.40;;
42754;SDS011;28407;51.830;5.684;2022-08-19T03:53:34;2.50;;;2.10;;
42754;SDS011;28407;51.830;5.684;2022-08-19T03:55:39;3.45;;;2.53;;
42754;SDS011;28407;51.830;5.684;2022-08-19T03:57:41;3.25;;;2.22;;
42754;SDS011;28407;51.830;5.684;2022-08-19T03:59:41;3.55;;;2.15;;
42754;SDS011;28407;51.830;5.684;2022-08-19T04:01:42;2.47;;;1.98;;
42754;SDS011;28407;51.830;5.684;2022-08-19T04:03:43;2.67;;;2.03;;
42754;SDS011;28407;51.830;5.684;2022-08-19T04:05:46;3.45;;;2.25;;
42754;SDS011;28407;51.830;5.684;2022-08-19T04:07:46;3.03;;;2.25;;
42754;SDS011;28407;51.830;5.684;2022-08-19T04:09:47;2.22;;;1.75;;
42754;SDS011;28407;51.830;5.684;2022-08-19T04:11:50;2.30;;;2.00;;
42754;SDS011;28407;51.830;5.684;2022-08-19T04:13:55;2.25;;;1.80;;
42754;SDS011;28407;51.830;5.684;2022-08-19T04:15:56;2.70;;;2.08;;
42754;SDS011;28407;51.830;5.684;2022-08-19T04:17:57;2.90;;;2.00;;
42754;SDS011;28407;51.830;5.684;2022-08-19T04:19:58;2.40;;;1.50;;
42754;SDS011;28407;51.830;5.684;2022-08-19T04:22:01;2.45;;;1.85;;
42754;SDS011;28407;51.830;5.684;2022-08-19T04:24:02;2.85;;;1.88;;
42754;SDS011;28407;51.830;5.684;2022-08-19T04:26:04;2.13;;;1.58;;
42754;SDS011;28407;51.830;5.684;2022-08-19T04:28:04;2.13;;;1.67;;
42754;SDS011;28407;51.830;5.684;2022-08-19T04:30:06;2.08;;;1.67;;
42754;SDS011;28407;51.830;5.684;2022-08-19T04:32:07;2.65;;;1.80;;
42754;SDS011;28407;51.830;5.684;2022-08-19T04:34:08;1.50;;;1.40;;
42754;SDS011;28407;51.830;5.684;2022-08-19T04:36:17;2.80;;;1.75;;
42754;SDS011;28407;51.830;5.684;2022-08-19T04:38:20;1.85;;;1.65;;
42754;SDS011;28407;51.830;5.684;2022-08-19T04:40:24;2.90;;;2.30;;
42754;SDS011;28407;51.830;5.684;2022-08-19T04:42:45;2.30;;;1.80;;
42754;SDS011;28407;51.830;5.684;2022-08-19T04:44:46;2.65;;;2.10;;
42754;SDS011;28407;51.830;5.684;2022-08-19T04:46:47;3.28;;;2.40;;
42754;SDS011;28407;51.830;5.684;2022-08-19T04:48:48;3.17;;;2.58;;
42754;SDS011;28407;51.830;5.684;2022-08-19T04:50:49;3.00;;;2.50;;
42754;SDS011;28407;51.830;5.684;2022-08-19T04:52:51;4.53;;;2.92;;
42754;SDS011;28407;51.830;5.684;2022-08-19T04:54:52;4.30;;;2.47;;
42754;SDS011;28407;51.830;5.684;2022-08-19T04:56:55;3.35;;;2.55;;
42754;SDS011;28407;51.830;5.684;2022-08-19T04:58:56;4.00;;;3.10;;
42754;SDS011;28407;51.830;5.684;2022-08-19T05:00:57;3.88;;;3.00;;
42754;SDS011;28407;51.830;5.684;2022-08-19T05:03:00;3.63;;;2.95;;
42754;SDS011;28407;51.830;5.684;2022-08-19T05:05:02;3.80;;;2.80;;
42754;SDS011;28407;51.830;5.684;2022-08-19T05:07:03;4.80;;;3.45;;
42754;SDS011;28407;51.830;5.684;2022-08-19T05:09:04;4.90;;;3.53;;
42754;SDS011;28407;51.830;5.684;2022-08-19T05:11:18;4.90;;;4.20;;
42754;SDS011;28407;51.830;5.684;2022-08-19T05:13:22;4.38;;;3.63;;
42754;SDS011;28407;51.830;5.684;2022-08-19T05:15:23;6.10;;;4.05;;
42754;SDS011;28407;51.830;5.684;2022-08-19T05:17:24;4.75;;;3.67;;
42754;SDS011;28407;51.830;5.684;2022-08-19T05:19:26;5.35;;;3.45;;
42754;SDS011;28407;51.830;5.684;2022-08-19T05:21:45;4.47;;;3.58;;
42754;SDS011;28407;51.830;5.684;2022-08-19T05:24:05;4.40;;;3.22;;
42754;SDS011;28407;51.830;5.684;2022-08-19T05:26:08;4.88;;;3.80;;
42754;SDS011;28407;51.830;5.684;2022-08-19T05:30:11;4.20;;;3.30;;
42754;SDS011;28407;51.830;5.684;2022-08-19T05:32:12;4.55;;;3.67;;
42754;SDS011;28407;51.830;5.684;2022-08-19T05:34:13;4.88;;;3.90;;
42754;SDS011;28407;51.830;5.684;2022-08-19T05:36:13;4.38;;;3.50;;
42754;SDS011;28407;51.830;5.684;2022-08-19T05:38:14;7.63;;;4.03;;
42754;SDS011;28407;51.830;5.684;2022-08-19T05:40:15;7.10;;;4.25;;
42754;SDS011;28407;51.830;5.684;2022-08-19T05:42:16;5.60;;;4.10;;
42754;SDS011;28407;51.830;5.684;2022-08-19T05:44:17;6.97;;;4.30;;
42754;SDS011;28407;51.830;5.684;2022-08-19T05:46:18;5.32;;;4.63;;
42754;SDS011;28407;51.830;5.684;2022-08-19T05:48:19;6.10;;;4.28;;
42754;SDS011;28407;51.830;5.684;2022-08-19T05:50:20;6.70;;;5.10;;
42754;SDS011;28407;51.830;5.684;2022-08-19T05:52:21;6.78;;;5.20;;
42754;SDS011;28407;51.830;5.684;2022-08-19T05:54:22;9.15;;;6.10;;
42754;SDS011;28407;51.830;5.684;2022-08-19T05:56:23;9.82;;;5.93;;
42754;SDS011;28407;51.830;5.684;2022-08-19T05:58:24;8.80;;;6.23;;
42754;SDS011;28407;51.830;5.684;2022-08-19T06:00:26;6.88;;;5.90;;
42754;SDS011;28407;51.830;5.684;2022-08-19T06:02:27;8.45;;;6.93;;
42754;SDS011;28407;51.830;5.684;2022-08-19T06:04:30;9.93;;;6.13;;
42754;SDS011;28407;51.830;5.684;2022-08-19T06:06:31;8.02;;;6.47;;
42754;SDS011;28407;51.830;5.684;2022-08-19T06:08:34;7.95;;;6.47;;
42754;SDS011;28407;51.830;5.684;2022-08-19T06:10:36;8.35;;;6.97;;
42754;SDS011;28407;51.830;5.684;2022-08-19T06:12:37;11.13;;;8.00;;
42754;SDS011;28407;51.830;5.684;2022-08-19T06:14:38;8.40;;;6.57;;
42754;SDS011;28407;51.830;5.684;2022-08-19T06:16:39;11.90;;;7.40;;
42754;SDS011;28407;51.830;5.684;2022-08-19T06:18:41;13.23;;;8.55;;
42754;SDS011;28407;51.830;5.684;2022-08-19T06:20:44;9.05;;;7.30;;
42754;SDS011;28407;51.830;5.684;2022-08-19T06:22:45;10.88;;;7.38;;
42754;SDS011;28407;51.830;5.684;2022-08-19T06:24:46;11.88;;;8.23;;
42754;SDS011;28407;51.830;5.684;2022-08-19T06:26:48;10.52;;;7.88;;
42754;SDS011;28407;51.830;5.684;2022-08-19T06:28:49;11.43;;;8.48;;
42754;SDS011;28407;51.830;5.684;2022-08-19T06:30:50;11.23;;;8.87;;
42754;SDS011;28407;51.830;5.684;2022-08-19T06:32:53;10.48;;;8.25;;
42754;SDS011;28407;51.830;5.684;2022-08-19T06:34:53;13.32;;;9.48;;
42754;SDS011;28407;51.830;5.684;2022-08-19T06:36:55;12.95;;;8.90;;
42754;SDS011;28407;51.830;5.684;2022-08-19T06:38:57;11.50;;;9.25;;
42754;SDS011;28407;51.830;5.684;2022-08-19T06:41:02;11.93;;;9.20;;
42754;SDS011;28407;51.830;5.684;2022-08-19T06:43:04;11.57;;;9.32;;
42754;SDS011;28407;51.830;5.684;2022-08-19T06:45:05;11.38;;;8.95;;
42754;SDS011;28407;51.830;5.684;2022-08-19T06:47:08;13.48;;;9.63;;
42754;SDS011;28407;51.830;5.684;2022-08-19T06:49:11;11.45;;;8.48;;
42754;SDS011;28407;51.830;5.684;2022-08-19T06:51:14;14.93;;;9.32;;
42754;SDS011;28407;51.830;5.684;2022-08-19T06:53:18;14.23;;;9.95;;
42754;SDS011;28407;51.830;5.684;2022-08-19T06:55:19;14.60;;;10.65;;
42754;SDS011;28407;51.830;5.684;2022-08-19T06:57:20;14.40;;;10.77;;
42754;SDS011;28407;51.830;5.684;2022-08-19T06:59:21;14.23;;;10.35;;
42754;SDS011;28407;51.830;5.684;2022-08-19T07:01:27;13.88;;;10.32;;
42754;SDS011;28407;51.830;5.684;2022-08-19T07:03:31;16.02;;;11.88;;
42754;SDS011;28407;51.830;5.684;2022-08-19T07:05:37;14.18;;;10.40;;
42754;SDS011;28407;51.830;5.684;2022-08-19T07:07:38;14.18;;;9.80;;
42754;SDS011;28407;51.830;5.684;2022-08-19T07:09:43;13.88;;;10.15;;
42754;SDS011;28407;51.830;5.684;2022-08-19T07:11:51;13.55;;;10.40;;
42754;SDS011;28407;51.830;5.684;2022-08-19T07:13:52;12.07;;;9.65;;
42754;SDS011;28407;51.830;5.684;2022-08-19T07:15:53;13.77;;;10.55;;
42754;SDS011;28407;51.830;5.684;2022-08-19T07:17:54;16.80;;;11.73;;
42754;SDS011;28407;51.830;5.684;2022-08-19T07:19:54;13.73;;;11.10;;
42754;SDS011;28407;51.830;5.684;2022-08-19T07:21:55;15.13;;;11.90;;
42754;SDS011;28407;51.830;5.684;2022-08-19T07:23:56;15.52;;;12.13;;
42754;SDS011;28407;51.830;5.684;2022-08-19T07:26:05;17.00;;;11.95;;
42754;SDS011;28407;51.830;5.684;2022-08-19T07:28:11;16.88;;;12.05;;
42754;SDS011;28407;51.830;5.684;2022-08-19T07:30:12;17.05;;;12.68;;
42754;SDS011;28407;51.830;5.684;2022-08-19T07:32:13;15.63;;;12.13;;
42754;SDS011;28407;51.830;5.684;2022-08-19T07:34:13;16.25;;;11.57;;
42754;SDS011;28407;51.830;5.684;2022-08-19T07:36:16;19.63;;;13.00;;
42754;SDS011;28407;51.830;5.684;2022-08-19T07:38:18;17.45;;;12.02;;
42754;SDS011;28407;51.830;5.684;2022-08-19T07:40:19;17.17;;;12.48;;
42754;SDS011;28407;51.830;5.684;2022-08-19T07:42:19;17.00;;;11.48;;
42754;SDS011;28407;51.830;5.684;2022-08-19T07:44:21;15.10;;;11.13;;
42754;SDS011;28407;51.830;5.684;2022-08-19T07:46:22;19.42;;;13.27;;
42754;SDS011;28407;51.830;5.684;2022-08-19T07:48:24;16.63;;;11.23;;
42754;SDS011;28407;51.830;5.684;2022-08-19T07:50:25;16.27;;;11.85;;
42754;SDS011;28407;51.830;5.684;2022-08-19T07:52:26;14.40;;;10.60;;
42754;SDS011;28407;51.830;5.684;2022-08-19T07:54:27;16.58;;;11.07;;
42754;SDS011;28407;51.830;5.684;2022-08-19T07:56:30;15.50;;;11.82;;
42754;SDS011;28407;51.830;5.684;2022-08-19T07:58:34;15.73;;;10.52;;
42754;SDS011;28407;51.830;5.684;2022-08-19T08:00:37;16.35;;;11.48;;
42754;SDS011;28407;51.830;5.684;2022-08-19T08:02:38;16.45;;;12.10;;
42754;SDS011;28407;51.830;5.684;2022-08-19T08:04:39;17.52;;;11.55;;
42754;SDS011;28407;51.830;5.684;2022-08-19T08:06:58;14.32;;;10.73;;
42754;SDS011;28407;51.830;5.684;2022-08-19T08:09:19;15.40;;;10.77;;
42754;SDS011;28407;51.830;5.684;2022-08-19T08:11:22;16.70;;;11.60;;
42754;SDS011;28407;51.830;5.684;2022-08-19T08:13:26;15.27;;;10.73;;
42754;SDS011;28407;51.830;5.684;2022-08-19T08:15:27;14.25;;;10.57;;
42754;SDS011;28407;51.830;5.684;2022-08-19T08:17:28;12.65;;;10.18;;
42754;SDS011;28407;51.830;5.684;2022-08-19T08:21:31;13.98;;;9.48;;
42754;SDS011;28407;51.830;5.684;2022-08-19T08:23:33;13.85;;;9.00;;
42754;SDS011;28407;51.830;5.684;2022-08-19T08:25:34;14.32;;;10.70;;
42754;SDS011;28407;51.830;5.684;2022-08-19T08:29:39;12.15;;;8.82;;
42754;SDS011;28407;51.830;5.684;2022-08-19T08:31:40;12.45;;;9.07;;
42754;SDS011;28407;51.830;5.684;2022-08-19T08:33:42;15.00;;;9.20;;
42754;SDS011;28407;51.830;5.684;2022-08-19T08:35:43;16.08;;;9.70;;
42754;SDS011;28407;51.830;5.684;2022-08-19T08:37:46;14.18;;;9.23;;
42754;SDS011;28407;51.830;5.684;2022-08-19T08:39:49;12.95;;;9.48;;
42754;SDS011;28407;51.830;5.684;2022-08-19T08:44:11;13.38;;;8.38;;
42754;SDS011;28407;51.830;5.684;2022-08-19T08:46:24;12.05;;;8.05;;
42754;SDS011;28407;51.830;5.684;2022-08-19T08:48:37;11.45;;;7.90;;
42754;SDS011;28407;51.830;5.684;2022-08-19T08:50:46;12.90;;;8.32;;
42754;SDS011;28407;51.830;5.684;2022-08-19T08:52:50;13.05;;;9.10;;
42754;SDS011;28407;51.830;5.684;2022-08-19T08:54:57;12.68;;;7.78;;
42754;SDS011;28407;51.830;5.684;2022-08-19T08:56:59;10.93;;;8.02;;
42754;SDS011;28407;51.830;5.684;2022-08-19T08:59:15;9.35;;;7.72;;
42754;SDS011;28407;51.830;5.684;2022-08-19T09:01:32;10.17;;;6.80;;
42754;SDS011;28407;51.830;5.684;2022-08-19T09:03:32;11.35;;;7.22;;
42754;SDS011;28407;51.830;5.684;2022-08-19T09:05:41;9.75;;;7.22;;
42754;SDS011;28407;51.830;5.684;2022-08-19T09:08:00;11.20;;;7.13;;
42754;SDS011;28407;51.830;5.684;2022-08-19T09:10:23;12.30;;;8.00;;
42754;SDS011;28407;51.830;5.684;2022-08-19T09:15:09;11.38;;;7.03;;
42754;SDS011;28407;51.830;5.684;2022-08-19T09:17:12;10.88;;;7.50;;
42754;SDS011;28407;51.830;5.684;2022-08-19T09:21:17;10.25;;;6.50;;
42754;SDS011;28407;51.830;5.684;2022-08-19T09:23:18;9.90;;;6.80;;
42754;SDS011;28407;51.830;5.684;2022-08-19T09:25:22;10.25;;;7.35;;
42754;SDS011;28407;51.830;5.684;2022-08-19T09:27:23;9.15;;;6.05;;
42754;SDS011;28407;51.830;5.684;2022-08-19T09:29:25;8.00;;;6.20;;
42754;SDS011;28407;51.830;5.684;2022-08-19T09:31:27;8.68;;;6.65;;
42754;SDS011;28407;51.830;5.684;2022-08-19T09:33:29;9.15;;;6.55;;
42754;SDS011;28407;51.830;5.684;2022-08-19T09:35:31;10.60;;;6.80;;
42754;SDS011;28407;51.830;5.684;2022-08-19T09:37:32;8.52;;;5.82;;
42754;SDS011;28407;51.830;5.684;2022-08-19T09:39:33;7.90;;;6.53;;
42754;SDS011;28407;51.830;5.684;2022-08-19T09:41:33;9.98;;;6.38;;
42754;SDS011;28407;51.830;5.684;2022-08-19T09:43:34;11.82;;;7.03;;
42754;SDS011;28407;51.830;5.684;2022-08-19T09:45:36;9.18;;;6.15;;
42754;SDS011;28407;51.830;5.684;2022-08-19T09:47:37;10.75;;;6.60;;
42754;SDS011;28407;51.830;5.684;2022-08-19T09:49:38;9.57;;;6.25;;
42754;SDS011;28407;51.830;5.684;2022-08-19T09:51:39;9.70;;;6.60;;
42754;SDS011;28407;51.830;5.684;2022-08-19T09:53:42;12.55;;;7.10;;
42754;SDS011;28407;51.830;5.684;2022-08-19T09:55:44;7.72;;;5.93;;
42754;SDS011;28407;51.830;5.684;2022-08-19T09:57:45;9.50;;;6.75;;
42754;SDS011;28407;51.830;5.684;2022-08-19T09:59:45;8.55;;;6.75;;
42754;SDS011;28407;51.830;5.684;2022-08-19T10:01:46;8.02;;;5.63;;
42754;SDS011;28407;51.830;5.684;2022-08-19T10:03:50;7.68;;;5.53;;
42754;SDS011;28407;51.830;5.684;2022-08-19T10:05:54;7.07;;;5.50;;
42754;SDS011;28407;51.830;5.684;2022-08-19T10:07:59;9.30;;;6.07;;
42754;SDS011;28407;51.830;5.684;2022-08-19T10:12:03;7.70;;;5.32;;
42754;SDS011;28407;51.830;5.684;2022-08-19T10:14:04;7.53;;;5.70;;
42754;SDS011;28407;51.830;5.684;2022-08-19T10:16:07;8.50;;;5.57;;
42754;SDS011;28407;51.830;5.684;2022-08-19T10:18:12;7.53;;;5.45;;
42754;SDS011;28407;51.830;5.684;2022-08-19T10:20:13;10.10;;;6.80;;
42754;SDS011;28407;51.830;5.684;2022-08-19T10:22:14;10.00;;;6.07;;
42754;SDS011;28407;51.830;5.684;2022-08-19T10:24:15;9.10;;;5.53;;
42754;SDS011;28407;51.830;5.684;2022-08-19T10:26:17;9.05;;;4.80;;
42754;SDS011;28407;51.830;5.684;2022-08-19T10:28:20;7.72;;;5.57;;
42754;SDS011;28407;51.830;5.684;2022-08-19T10:30:21;6.50;;;4.78;;
42754;SDS011;28407;51.830;5.684;2022-08-19T10:32:22;6.93;;;4.68;;
42754;SDS011;28407;51.830;5.684;2022-08-19T10:34:23;7.50;;;5.00;;
42754;SDS011;28407;51.830;5.684;2022-08-19T10:36:26;7.72;;;5.75;;
42754;SDS011;28407;51.830;5.684;2022-08-19T10:38:31;6.28;;;4.88;;
42754;SDS011;28407;51.830;5.684;2022-08-19T10:40:33;7.75;;;4.70;;
42754;SDS011;28407;51.830;5.684;2022-08-19T10:42:34;6.28;;;4.80;;
42754;SDS011;28407;51.830;5.684;2022-08-19T10:44:37;7.28;;;4.88;;
42754;SDS011;28407;51.830;5.684;2022-08-19T10:46:39;7.53;;;5.47;;
42754;SDS011;28407;51.830;5.684;2022-08-19T10:48:43;8.45;;;5.05;;
42754;SDS011;28407;51.830;5.684;2022-08-19T10:50:44;9.27;;;5.97;;
42754;SDS011;28407;51.830;5.684;2022-08-19T10:53:04;6.63;;;4.82;;
42754;SDS011;28407;51.830;5.684;2022-08-19T10:55:08;8.95;;;5.50;;
42754;SDS011;28407;51.830;5.684;2022-08-19T10:57:30;7.68;;;5.38;;
42754;SDS011;28407;51.830;5.684;2022-08-19T10:59:31;7.20;;;4.68;;
42754;SDS011;28407;51.830;5.684;2022-08-19T11:01:33;8.45;;;5.30;;
42754;SDS011;28407;51.830;5.684;2022-08-19T11:03:34;6.82;;;5.60;;
42754;SDS011;28407;51.830;5.684;2022-08-19T11:05:35;9.02;;;5.65;;
42754;SDS011;28407;51.830;5.684;2022-08-19T11:07:38;8.38;;;5.65;;
42754;SDS011;28407;51.830;5.684;2022-08-19T11:09:40;9.10;;;5.43;;
42754;SDS011;28407;51.830;5.684;2022-08-19T11:11:42;5.18;;;4.35;;
42754;SDS011;28407;51.830;5.684;2022-08-19T11:13:43;9.83;;;5.80;;
42754;SDS011;28407;51.830;5.684;2022-08-19T11:15:45;6.40;;;4.72;;
42754;SDS011;28407;51.830;5.684;2022-08-19T11:17:47;7.18;;;5.20;;
42754;SDS011;28407;51.830;5.684;2022-08-19T11:19:47;7.00;;;6.15;;
42754;SDS011;28407;51.830;5.684;2022-08-19T11:21:49;6.72;;;5.47;;
42754;SDS011;28407;51.830;5.684;2022-08-19T11:23:51;5.95;;;4.93;;
42754;SDS011;28407;51.830;5.684;2022-08-19T11:25:54;7.07;;;5.35;;
42754;SDS011;28407;51.830;5.684;2022-08-19T11:27:56;7.88;;;6.25;;
42754;SDS011;28407;51.830;5.684;2022-08-19T11:29:57;7.65;;;6.03;;
42754;SDS011;28407;51.830;5.684;2022-08-19T11:31:58;6.07;;;5.35;;
42754;SDS011;28407;51.830;5.684;2022-08-19T11:33:59;6.78;;;5.45;;
42754;SDS011;28407;51.830;5.684;2022-08-19T11:36:03;6.97;;;5.38;;
42754;SDS011;28407;51.830;5.684;2022-08-19T11:38:03;8.15;;;5.78;;
42754;SDS011;28407;51.830;5.684;2022-08-19T11:40:05;8.40;;;6.00;;
42754;SDS011;28407;51.830;5.684;2022-08-19T11:42:07;7.95;;;6.15;;
42754;SDS011;28407;51.830;5.684;2022-08-19T11:44:26;11.57;;;6.00;;
42754;SDS011;28407;51.830;5.684;2022-08-19T11:46:30;5.90;;;4.65;;
42754;SDS011;28407;51.830;5.684;2022-08-19T11:48:31;6.63;;;5.50;;
42754;SDS011;28407;51.830;5.684;2022-08-19T11:50:31;6.60;;;5.32;;
42754;SDS011;28407;51.830;5.684;2022-08-19T11:52:32;7.15;;;5.97;;
42754;SDS011;28407;51.830;5.684;2022-08-19T11:54:33;9.48;;;6.45;;
42754;SDS011;28407;51.830;5.684;2022-08-19T11:56:33;8.80;;;5.85;;
42754;SDS011;28407;51.830;5.684;2022-08-19T11:58:34;8.63;;;6.35;;
42754;SDS011;28407;51.830;5.684;2022-08-19T12:00:35;7.90;;;5.70;;
42754;SDS011;28407;51.830;5.684;2022-08-19T12:02:37;8.73;;;6.38;;
42754;SDS011;28407;51.830;5.684;2022-08-19T12:04:39;6.63;;;5.57;;
42754;SDS011;28407;51.830;5.684;2022-08-19T12:06:40;8.30;;;6.88;;
42754;SDS011;28407;51.830;5.684;2022-08-19T12:08:41;7.72;;;6.85;;
42754;SDS011;28407;51.830;5.684;2022-08-19T12:12:45;8.50;;;6.28;;
42754;SDS011;28407;51.830;5.684;2022-08-19T12:14:46;7.97;;;6.13;;
42754;SDS011;28407;51.830;5.684;2022-08-19T12:16:47;7.43;;;5.40;;
42754;SDS011;28407;51.830;5.684;2022-08-19T12:18:47;6.82;;;5.38;;
42754;SDS011;28407;51.830;5.684;2022-08-19T12:20:50;6.80;;;4.72;;
42754;SDS011;28407;51.830;5.684;2022-08-19T12:22:52;8.05;;;5.57;;
42754;SDS011;28407;51.830;5.684;2022-08-19T12:24:53;7.80;;;5.78;;
42754;SDS011;28407;51.830;5.684;2022-08-19T12:26:54;5.82;;;5.22;;
42754;SDS011;28407;51.830;5.684;2022-08-19T12:28:56;7.18;;;5.10;;
42754;SDS011;28407;51.830;5.684;2022-08-19T12:30:59;6.75;;;5.70;;
42754;SDS011;28407;51.830;5.684;2022-08-19T12:33:00;8.33;;;5.77;;
42754;SDS011;28407;51.830;5.684;2022-08-19T12:35:00;6.28;;;5.07;;